Time;durP1;ratioP1;P1;durP2;ratioP2;P2;SDS_P1;SDS_P2;PMS_P1;PMS_P2;Temp;Humidity;BMP_temperature;BMP_pressure;BME280_temperature;BME280_humidity;BME280_pressure;Samples;Min_cycle;Max_cycle;Signal;HPM_P1;HPM_P2
2022/06/23 00:02:05;;;;;;;10.93;5.30;;;;;;;;;;5071210;28;20057;-67
2022/06/23 00:04:42;;;;;;;9.18;4.50;;;;;;;;;;5030950;28;20061;-68
2022/06/23 00:07:24;;;;;;;9.93;4.25;;;;;;;;;;4991311;28;20450;-68
2022/06/23 00:09:57;;;;;;;7.88;4.30;;;;;;;;;;4972026;28;20062;-67
2022/06/23 00:12:32;;;;;;;9.50;4.80;;;;;;;;;;4955840;28;20462;-68
2022/06/23 00:15:04;;;;;;;11.75;5.32;;;;;;;;;;4940442;28;20206;-67
2022/06/23 00:17:43;;;;;;;8.70;4.78;;;;;;;;;;4971963;28;20510;-67
2022/06/23 00:20:39;;;;;;;12.15;4.85;;;;;;;;;;4940134;28;20051;-67
2022/06/23 00:23:31;;;;;;;8.07;4.45;;;;;;;;;;4937165;29;20546;-67
2022/06/23 00:26:28;;;;;;;10.10;4.75;;;;;;;;;;4937019;29;20074;-67
2022/06/23 00:29:11;;;;;;;14.02;4.60;;;;;;;;;;4920595;29;20056;-67
2022/06/23 00:31:53;;;;;;;9.13;5.03;;;;;;;;;;4952794;29;20051;-67
2022/06/23 00:34:28;;;;;;;11.70;5.18;;;;;;;;;;4952545;29;20055;-67
2022/06/23 00:37:17;;;;;;;11.75;5.97;;;;;;;;;;4952672;29;20058;-67
2022/06/23 00:39:51;;;;;;;10.77;5.95;;;;;;;;;;4952902;29;20070;-68
2022/06/23 00:42:35;;;;;;;11.40;5.50;;;;;;;;;;4963473;28;20061;-67
2022/06/23 00:45:11;;;;;;;11.20;5.80;;;;;;;;;;4983235;28;20054;-67
2022/06/23 00:48:06;;;;;;;14.70;6.30;;;;;;;;;;4985993;28;20054;-67
2022/06/23 00:50:51;;;;;;;18.50;8.60;;;;;;;;;;5010646;28;20506;-67
2022/06/23 00:53:42;;;;;;;17.85;8.50;;;;;;;;;;4994582;28;20056;-68
2022/06/23 00:56:48;;;;;;;18.55;9.23;;;;;;;;;;5028321;28;20413;-67
2022/06/23 00:59:26;;;;;;;21.95;9.57;;;;;;;;;;5037346;28;20087;-67
2022/06/23 01:02:07;;;;;;;13.32;7.07;;;;;;;;;;5072506;28;20519;-68
2022/06/23 01:05:09;;;;;;;13.95;6.50;;;;;;;;;;5072279;28;20041;-67
2022/06/23 01:08:12;;;;;;;13.85;6.93;;;;;;;;;;5070172;28;20056;-67
2022/06/23 01:10:48;;;;;;;14.07;6.63;;;;;;;;;;5072192;28;20045;-67
2022/06/23 01:13:28;;;;;;;16.67;6.97;;;;;;;;;;5072047;28;20048;-68
2022/06/23 01:16:20;;;;;;;12.40;6.53;;;;;;;;;;5072242;28;20047;-67
2022/06/23 01:18:51;;;;;;;13.77;5.28;;;;;;;;;;5072147;28;20496;-67
2022/06/23 01:21:33;;;;;;;14.48;6.97;;;;;;;;;;5069420;28;20096;-68
2022/06/23 01:24:33;;;;;;;14.00;7.85;;;;;;;;;;5069067;28;20412;-67
2022/06/23 01:27:27;;;;;;;14.68;6.03;;;;;;;;;;5049635;28;20052;-67
2022/06/23 01:30:06;;;;;;;11.38;5.55;;;;;;;;;;5049409;28;20497;-67
2022/06/23 01:32:47;;;;;;;10.18;5.43;;;;;;;;;;5049681;28;20048;-67
2022/06/23 01:35:31;;;;;;;11.25;5.50;;;;;;;;;;5049574;28;20138;-67
2022/06/23 01:38:35;;;;;;;13.38;5.45;;;;;;;;;;5049598;28;20060;-67
2022/06/23 01:41:18;;;;;;;15.50;7.03;;;;;;;;;;5029295;28;20408;-67
2022/06/23 01:44:18;;;;;;;13.70;6.18;;;;;;;;;;5029335;28;20054;-67
2022/06/23 01:46:52;;;;;;;13.07;6.35;;;;;;;;;;4954502;28;20062;-67
2022/06/23 01:49:30;;;;;;;13.13;5.63;;;;;;;;;;4923142;28;20774;-67
2022/06/23 01:52:12;;;;;;;14.05;6.57;;;;;;;;;;4970409;28;20058;-67
2022/06/23 01:54:43;;;;;;;14.77;5.80;;;;;;;;;;4954277;28;20055;-68
2022/06/23 01:57:28;;;;;;;15.60;6.78;;;;;;;;;;4954905;28;20051;-68
2022/06/23 02:00:18;;;;;;;14.00;6.60;;;;;;;;;;4988337;28;20054;-68
2022/06/23 02:02:51;;;;;;;15.93;7.05;;;;;;;;;;4990132;28;20057;-68
2022/06/23 02:05:33;;;;;;;15.63;6.47;;;;;;;;;;4989775;28;20062;-68
2022/06/23 02:08:35;;;;;;;14.77;6.85;;;;;;;;;;4973789;28;20549;-68
2022/06/23 02:11:19;;;;;;;15.65;5.90;;;;;;;;;;4973436;28;20058;-68
2022/06/23 02:13:55;;;;;;;12.57;6.45;;;;;;;;;;4989904;28;20091;-68
2022/06/23 02:16:55;;;;;;;14.32;6.47;;;;;;;;;;4989793;28;20507;-68
2022/06/23 02:19:40;;;;;;;14.40;6.32;;;;;;;;;;4988706;28;20061;-66
2022/06/23 02:22:12;;;;;;;;;;;;;;;;;;5029416;28;20048;-66
2022/06/23 02:24:48;;;;;;;14.82;7.72;;;;;;;;;;5062855;28;20289;-66
2022/06/23 02:27:24;;;;;;;13.52;6.25;;;;;;;;;;5036240;28;20044;-65
2022/06/23 02:30:05;;;;;;;13.65;5.90;;;;;;;;;;5036016;28;20049;-67
2022/06/23 02:32:54;;;;;;;12.73;6.03;;;;;;;;;;5018959;28;20516;-67
2022/06/23 02:35:45;;;;;;;16.65;6.38;;;;;;;;;;5072714;28;20057;-67
2022/06/23 02:38:25;;;;;;;11.43;5.00;;;;;;;;;;5072797;28;20593;-67
2022/06/23 02:41:08;;;;;;;9.18;4.28;;;;;;;;;;5032439;28;20088;-67
2022/06/23 02:43:50;;;;;;;6.65;3.60;;;;;;;;;;5018139;28;20054;-67
2022/06/23 02:46:44;;;;;;;5.35;3.10;;;;;;;;;;5016645;28;20651;-67
2022/06/23 02:49:23;;;;;;;10.98;2.97;;;;;;;;;;5032568;28;20042;-67
2022/06/23 02:52:18;;;;;;;7.35;3.67;;;;;;;;;;5032723;28;20053;-67
2022/06/23 02:55:09;;;;;;;11.63;4.80;;;;;;;;;;4996226;28;20417;-67
2022/06/23 02:57:42;;;;;;;11.80;5.57;;;;;;;;;;5012692;28;20058;-67
2022/06/23 03:00:31;;;;;;;14.98;5.80;;;;;;;;;;4964916;28;20062;-68
2022/06/23 03:03:13;;;;;;;13.07;6.18;;;;;;;;;;4973434;28;20159;-67
2022/06/23 03:06:05;;;;;;;18.40;7.15;;;;;;;;;;4973190;28;20058;-67
2022/06/23 03:08:35;;;;;;;;;;;;;;;;;;4973958;28;20055;-67
2022/06/23 03:11:10;;;;;;;17.23;7.28;;;;;;;;;;4973000;28;19925;-67
2022/06/23 03:13:58;;;;;;;17.33;8.10;;;;;;;;;;4925566;28;20557;-68
2022/06/23 03:16:35;;;;;;;17.58;8.45;;;;;;;;;;4973245;28;20065;-67
2022/06/23 03:19:18;;;;;;;15.75;7.55;;;;;;;;;;4987404;28;20062;-68
2022/06/23 03:22:01;;;;;;;14.38;7.20;;;;;;;;;;4941228;28;20054;-68
2022/06/23 03:24:39;;;;;;;14.48;6.93;;;;;;;;;;4973273;28;20426;-68
2022/06/23 03:27:35;;;;;;;12.88;5.93;;;;;;;;;;4934394;29;20043;-67
2022/06/23 03:30:27;;;;;;;10.82;5.68;;;;;;;;;;4915496;29;20060;-67
2022/06/23 03:33:08;;;;;;;10.88;4.65;;;;;;;;;;4942426;28;20522;-67
2022/06/23 03:35:48;;;;;;;8.48;4.47;;;;;;;;;;4922353;29;20055;-67
2022/06/23 03:41:36;;;;;;;9.77;4.53;;;;;;;;;;4969467;28;20059;-67
2022/06/23 03:44:23;;;;;;;10.32;4.18;;;;;;;;;;4941235;28;20055;-67
2022/06/23 03:46:59;;;;;;;11.90;4.28;;;;;;;;;;4940086;28;20058;-67
2022/06/23 03:49:47;;;;;;;7.03;4.07;;;;;;;;;;5004619;28;20065;-70
2022/06/23 03:52:42;;;;;;;13.27;3.38;;;;;;;;;;5011615;28;20073;-69
2022/06/23 03:55:25;;;;;;;9.95;4.03;;;;;;;;;;5011697;28;20061;-64
2022/06/23 03:58:00;;;;;;;17.70;3.95;;;;;;;;;;5011816;28;20054;-66
2022/06/23 04:00:30;;;;;;;8.77;3.63;;;;;;;;;;5011681;28;20481;-67
2022/06/23 04:03:26;;;;;;;9.43;4.18;;;;;;;;;;5011462;28;20050;-68
2022/06/23 04:05:57;;;;;;;6.15;3.28;;;;;;;;;;5011442;28;20065;-67
2022/06/23 04:08:31;;;;;;;8.40;4.53;;;;;;;;;;5034938;28;20060;-67
2022/06/23 04:14:02;;;;;;;9.57;4.43;;;;;;;;;;5018536;28;20057;-68
2022/06/23 04:16:35;;;;;;;9.80;4.57;;;;;;;;;;5051321;28;20057;-68
2022/06/23 04:19:26;;;;;;;8.38;4.43;;;;;;;;;;5001640;28;20504;-68
2022/06/23 04:22:16;;;;;;;7.28;3.53;;;;;;;;;;5051078;28;20053;-68
2022/06/23 04:24:50;;;;;;;12.27;4.15;;;;;;;;;;5051247;28;20624;-68
2022/06/23 04:27:31;;;;;;;11.13;3.97;;;;;;;;;;5076147;28;20547;-68
2022/06/23 04:30:03;;;;;;;15.95;3.83;;;;;;;;;;5057150;28;20059;-69
2022/06/23 04:32:36;;;;;;;8.50;4.10;;;;;;;;;;5001105;28;20056;-68
2022/06/23 04:35:06;;;;;;;8.50;4.05;;;;;;;;;;5050465;28;20165;-69
2022/06/23 04:37:42;;;;;;;8.77;4.20;;;;;;;;;;5050771;28;20073;-69
2022/06/23 04:40:28;;;;;;;8.82;4.22;;;;;;;;;;5034240;28;20048;-69
2022/06/23 04:43:24;;;;;;;11.65;3.90;;;;;;;;;;5001268;28;20072;-68
2022/06/23 04:45:54;;;;;;;7.25;3.67;;;;;;;;;;4971866;28;20171;-68
2022/06/23 04:48:44;;;;;;;7.45;3.75;;;;;;;;;;4933082;29;20056;-69
2022/06/23 04:51:44;;;;;;;8.00;4.00;;;;;;;;;;4879774;29;20056;-66
2022/06/23 04:54:22;;;;;;;9.38;4.03;;;;;;;;;;4864321;29;20056;-66
2022/06/23 04:57:11;;;;;;;9.90;4.40;;;;;;;;;;4878949;29;20060;-67
2022/06/23 04:59:50;;;;;;;8.45;4.10;;;;;;;;;;4895258;29;20523;-67
2022/06/23 05:02:24;;;;;;;8.50;4.25;;;;;;;;;;4864041;29;20417;-67
2022/06/23 05:04:59;;;;;;;7.25;4.22;;;;;;;;;;4913832;29;20428;-67
2022/06/23 05:07:49;;;;;;;9.73;5.28;;;;;;;;;;4913772;29;20091;-67
2022/06/23 05:10:31;;;;;;;7.65;3.90;;;;;;;;;;4913168;29;20063;-67
2022/06/23 05:13:18;;;;;;;6.90;4.07;;;;;;;;;;4913701;29;20082;-67
2022/06/23 05:16:11;;;;;;;7.60;4.05;;;;;;;;;;4913372;29;20048;-67
2022/06/23 05:18:51;;;;;;;9.75;4.22;;;;;;;;;;4913363;29;20433;-67
2022/06/23 05:21:42;;;;;;;8.55;3.75;;;;;;;;;;4863086;29;20064;-67
2022/06/23 05:24:23;;;;;;;8.70;4.10;;;;;;;;;;4949930;28;20062;-67
2022/06/23 05:27:02;;;;;;;7.45;3.92;;;;;;;;;;4936298;29;20501;-66
2022/06/23 05:29:49;;;;;;;8.27;3.80;;;;;;;;;;5008083;28;20489;-68
2022/06/23 05:32:26;;;;;;;10.18;4.15;;;;;;;;;;5013464;28;20665;-67
2022/06/23 05:35:15;;;;;;;11.05;4.88;;;;;;;;;;5029764;28;20409;-67
2022/06/23 05:37:51;;;;;;;8.35;4.22;;;;;;;;;;5009484;28;20456;-67
2022/06/23 05:40:40;;;;;;;9.52;4.18;;;;;;;;;;4961398;28;20054;-67
2022/06/23 05:43:12;;;;;;;8.05;3.85;;;;;;;;;;4961100;28;20061;-67
2022/06/23 05:45:51;;;;;;;8.15;3.70;;;;;;;;;;5009887;28;20065;-67
2022/06/23 05:48:28;;;;;;;8.63;3.97;;;;;;;;;;4996988;28;20409;-67
2022/06/23 05:51:08;;;;;;;6.82;3.75;;;;;;;;;;4990019;28;20058;-66
2022/06/23 05:54:04;;;;;;;7.40;3.65;;;;;;;;;;4996344;28;20088;-66
2022/06/23 05:56:57;;;;;;;7.30;4.40;;;;;;;;;;5028941;28;20401;-67
2022/06/23 05:59:38;;;;;;;7.38;3.75;;;;;;;;;;5015292;28;20053;-67
2022/06/23 06:02:24;;;;;;;10.70;4.10;;;;;;;;;;4982301;28;20046;-67
2022/06/23 06:04:59;;;;;;;7.18;4.28;;;;;;;;;;4990138;28;20054;-67
2022/06/23 06:07:41;;;;;;;8.35;4.20;;;;;;;;;;4989608;28;20058;-67
2022/06/23 06:10:19;;;;;;;7.03;3.92;;;;;;;;;;4981408;28;20054;-67
2022/06/23 06:12:51;;;;;;;7.55;3.95;;;;;;;;;;4969966;28;20650;-67
2022/06/23 06:15:28;;;;;;;7.43;4.30;;;;;;;;;;4954012;28;20546;-67
2022/06/23 06:18:23;;;;;;;9.80;3.85;;;;;;;;;;4970247;28;20058;-67
2022/06/23 06:20:54;;;;;;;13.85;4.25;;;;;;;;;;4951104;29;20062;-67
2022/06/23 06:23:38;;;;;;;9.45;4.43;;;;;;;;;;4919300;29;20062;-68
2022/06/23 06:26:15;;;;;;;10.70;4.13;;;;;;;;;;4951075;29;20066;-67
2022/06/23 06:28:46;;;;;;;8.73;4.30;;;;;;;;;;4935655;29;20058;-68
2022/06/23 06:31:27;;;;;;;8.18;4.78;;;;;;;;;;4950536;29;20430;-68
2022/06/23 06:34:34;;;;;;;10.98;4.30;;;;;;;;;;4966023;28;20054;-67
2022/06/23 06:37:09;;;;;;;8.57;3.75;;;;;;;;;;4862644;29;20045;-68
2022/06/23 06:39:46;;;;;;;9.80;4.25;;;;;;;;;;4862944;29;20052;-68
2022/06/23 06:42:26;;;;;;;10.07;3.97;;;;;;;;;;4910770;29;20067;-68
2022/06/23 06:45:09;;;;;;;7.70;4.60;;;;;;;;;;4912554;29;20071;-68
2022/06/23 06:47:42;;;;;;;7.85;3.85;;;;;;;;;;4866008;29;20052;-69
2022/06/23 06:50:19;;;;;;;10.05;4.60;;;;;;;;;;4927302;28;20063;-68
2022/06/23 06:52:51;;;;;;;9.00;4.45;;;;;;;;;;4950781;29;20059;-68
2022/06/23 06:55:34;;;;;;;12.07;4.30;;;;;;;;;;4950544;28;20078;-68
2022/06/23 06:58:25;;;;;;;8.60;4.63;;;;;;;;;;4957056;28;20046;-68
2022/06/23 07:01:08;;;;;;;8.80;4.32;;;;;;;;;;4970374;28;20059;-68
2022/06/23 07:03:44;;;;;;;7.95;4.07;;;;;;;;;;4969953;28;20063;-67
2022/06/23 07:06:36;;;;;;;7.85;4.45;;;;;;;;;;4954451;28;20503;-67
2022/06/23 07:09:07;;;;;;;8.05;4.35;;;;;;;;;;4931351;29;20048;-68
2022/06/23 07:11:52;;;;;;;10.00;4.22;;;;;;;;;;4931502;29;20059;-67
2022/06/23 07:14:25;;;;;;;;;;;;;;;;;;4982413;28;20062;-67
2022/06/23 07:17:22;;;;;;;9.27;4.40;;;;;;;;;;4973606;28;20329;-67
2022/06/23 07:20:02;;;;;;;12.93;3.92;;;;;;;;;;4989034;28;20061;-68
2022/06/23 07:22:43;;;;;;;8.23;4.25;;;;;;;;;;4984189;28;20058;-67
2022/06/23 07:25:23;;;;;;;18.83;4.10;;;;;;;;;;4953663;29;20047;-67
2022/06/23 07:28:04;;;;;;;9.25;4.10;;;;;;;;;;4972961;28;20065;-67
2022/06/23 07:30:40;;;;;;;8.88;4.18;;;;;;;;;;4973130;28;20054;-67
2022/06/23 07:33:50;;;;;;;8.95;4.30;;;;;;;;;;4995471;28;20049;-67
2022/06/23 07:36:31;;;;;;;8.15;3.72;;;;;;;;;;5010838;28;20504;-67
2022/06/23 07:39:24;;;;;;;10.60;4.55;;;;;;;;;;5011997;28;20060;-67
2022/06/23 07:42:12;;;;;;;9.85;4.68;;;;;;;;;;4979636;28;20054;-67
2022/06/23 07:44:52;;;;;;;11.82;4.38;;;;;;;;;;5031521;28;20076;-68
2022/06/23 07:47:23;;;;;;;9.85;5.00;;;;;;;;;;5046883;28;20082;-67
2022/06/23 07:49:54;;;;;;;10.20;3.97;;;;;;;;;;5051638;28;20072;-67
2022/06/23 07:52:25;;;;;;;12.07;5.25;;;;;;;;;;5031135;28;20402;-67
2022/06/23 07:54:56;;;;;;;10.27;4.65;;;;;;;;;;5015502;28;20057;-67
2022/06/23 07:57:30;;;;;;;10.90;5.22;;;;;;;;;;4998616;28;20053;-67
2022/06/23 08:00:06;;;;;;;14.00;4.97;;;;;;;;;;5031546;28;20045;-66
2022/06/23 08:03:00;;;;;;;10.00;4.60;;;;;;;;;;5023601;28;20049;-66
2022/06/23 08:05:53;;;;;;;9.80;5.15;;;;;;;;;;5050925;28;20494;-67
2022/06/23 08:08:29;;;;;;;9.13;5.05;;;;;;;;;;5017691;28;20068;-66
2022/06/23 08:14:00;;;;;;;7.65;4.13;;;;;;;;;;5050910;28;20057;-66
2022/06/23 08:19:35;;;;;;;6.47;3.60;;;;;;;;;;5051025;28;20123;-67
2022/06/23 08:22:13;;;;;;;10.05;4.60;;;;;;;;;;5010707;28;20633;-67
2022/06/23 08:24:48;;;;;;;7.72;4.22;;;;;;;;;;4979221;28;20053;-67
2022/06/23 08:27:43;;;;;;;7.88;3.75;;;;;;;;;;5010869;28;20050;-67
2022/06/23 08:30:17;;;;;;;8.23;4.18;;;;;;;;;;5010945;28;20506;-67
2022/06/23 08:32:50;;;;;;;7.40;3.95;;;;;;;;;;4995100;28;20505;-67
2022/06/23 08:35:47;;;;;;;9.13;4.07;;;;;;;;;;4971918;28;20126;-67
2022/06/23 08:38:24;;;;;;;6.45;3.80;;;;;;;;;;4971838;28;20070;-67
2022/06/23 08:41:22;;;;;;;8.18;4.20;;;;;;;;;;4971223;28;20499;-67
2022/06/23 08:44:27;;;;;;;8.73;4.40;;;;;;;;;;4990897;28;20062;-67
2022/06/23 08:47:07;;;;;;;9.13;4.22;;;;;;;;;;4990881;28;20054;-67
2022/06/23 08:49:55;;;;;;;11.73;5.00;;;;;;;;;;4960426;28;20061;-67
2022/06/23 08:52:33;;;;;;;8.30;4.70;;;;;;;;;;4991373;28;20057;-67
2022/06/23 08:55:21;;;;;;;10.77;4.90;;;;;;;;;;4936271;29;20051;-67
2022/06/23 08:58:32;;;;;;;10.30;5.32;;;;;;;;;;4952270;29;20055;-67
2022/06/23 09:01:16;;;;;;;11.32;4.82;;;;;;;;;;4958595;28;20055;-68
2022/06/23 09:04:04;;;;;;;9.05;4.43;;;;;;;;;;4990782;28;20050;-67
2022/06/23 09:06:54;;;;;;;10.13;5.35;;;;;;;;;;4990338;28;20505;-67
2022/06/23 09:09:43;;;;;;;11.38;5.45;;;;;;;;;;4952142;29;20055;-67
2022/06/23 09:12:49;;;;;;;10.90;5.32;;;;;;;;;;4932507;29;20420;-67
2022/06/23 09:15:35;;;;;;;10.93;5.40;;;;;;;;;;4913793;29;20063;-67
2022/06/23 09:18:33;;;;;;;10.98;5.80;;;;;;;;;;4913689;29;20064;-67
2022/06/23 09:21:30;;;;;;;11.27;5.97;;;;;;;;;;4867227;29;20060;-68
2022/06/23 09:24:27;;;;;;;11.85;6.13;;;;;;;;;;4913717;29;20064;-68
2022/06/23 09:27:03;;;;;;;11.85;5.40;;;;;;;;;;4913574;29;20118;-67
2022/06/23 09:29:52;;;;;;;9.63;4.95;;;;;;;;;;4913651;29;20060;-67
2022/06/23 09:32:43;;;;;;;10.50;4.55;;;;;;;;;;4887701;29;20060;-67
2022/06/23 09:35:27;;;;;;;9.05;4.82;;;;;;;;;;4875843;29;20061;-68
2022/06/23 09:38:06;;;;;;;8.80;4.75;;;;;;;;;;4875645;29;20053;-68
2022/06/23 09:41:21;;;;;;;9.25;4.70;;;;;;;;;;4875971;29;20061;-68
2022/06/23 09:43:57;;;;;;;9.48;5.07;;;;;;;;;;4875381;29;20072;-68
2022/06/23 09:46:51;;;;;;;10.30;4.63;;;;;;;;;;4906584;29;20062;-68
2022/06/23 09:50:00;;;;;;;12.98;5.30;;;;;;;;;;4956953;28;20057;-68
2022/06/23 09:52:48;;;;;;;11.23;5.32;;;;;;;;;;5030538;28;20052;-67
2022/06/23 09:55:46;;;;;;;10.55;5.78;;;;;;;;;;5012279;28;20065;-68
2022/06/23 09:58:35;;;;;;;11.45;5.30;;;;;;;;;;4996213;28;20045;-68
2022/06/23 10:01:42;;;;;;;10.00;5.65;;;;;;;;;;5029610;28;20053;-67
2022/06/23 10:04:37;;;;;;;10.77;5.45;;;;;;;;;;5029002;28;20108;-68
2022/06/23 10:07:26;;;;;;;10.25;5.53;;;;;;;;;;5012388;28;20046;-68
2022/06/23 10:10:21;;;;;;;9.23;5.35;;;;;;;;;;5014501;28;20056;-68
2022/06/23 10:13:17;;;;;;;10.75;5.80;;;;;;;;;;5035853;28;20044;-68
2022/06/23 10:16:21;;;;;;;9.32;5.10;;;;;;;;;;5069080;28;20087;-68
2022/06/23 10:19:10;;;;;;;11.73;5.63;;;;;;;;;;5068858;28;20044;-68
2022/06/23 10:22:12;;;;;;;9.40;5.30;;;;;;;;;;5051995;28;20045;-68
2022/06/23 10:24:49;;;;;;;12.20;6.45;;;;;;;;;;5029192;28;20049;-68
2022/06/23 10:27:29;;;;;;;10.98;5.95;;;;;;;;;;5029045;28;20057;-67
2022/06/23 10:30:28;;;;;;;14.65;6.50;;;;;;;;;;4998279;28;20049;-68
2022/06/23 10:33:15;;;;;;;11.18;5.63;;;;;;;;;;5039682;28;20053;-68
2022/06/23 10:36:09;;;;;;;11.02;6.63;;;;;;;;;;5015711;28;20060;-68
2022/06/23 10:39:02;;;;;;;11.05;5.80;;;;;;;;;;5048719;28;20045;-68
2022/06/23 10:42:07;;;;;;;13.10;6.65;;;;;;;;;;5048917;28;20519;-68
2022/06/23 10:45:03;;;;;;;21.08;11.55;;;;;;;;;;5009339;28;20058;-67
2022/06/23 10:48:10;;;;;;;14.38;8.60;;;;;;;;;;5009340;28;20053;-68
2022/06/23 10:50:47;;;;;;;13.35;6.88;;;;;;;;;;4989359;28;20050;-68
2022/06/23 10:53:24;;;;;;;11.45;6.22;;;;;;;;;;4974397;28;20571;-67
2022/06/23 10:56:13;;;;;;;9.40;5.13;;;;;;;;;;4958105;28;20058;-68
2022/06/23 10:59:08;;;;;;;11.00;5.53;;;;;;;;;;4993200;28;20046;-68
2022/06/23 11:01:45;;;;;;;11.07;5.32;;;;;;;;;;4972009;28;20065;-68
2022/06/23 11:04:41;;;;;;;11.35;5.80;;;;;;;;;;4993055;28;20058;-68
2022/06/23 11:07:26;;;;;;;12.50;6.30;;;;;;;;;;4992400;28;20054;-68
2022/06/23 11:10:04;;;;;;;14.77;5.97;;;;;;;;;;4993116;28;20054;-67
2022/06/23 11:12:53;;;;;;;10.32;5.75;;;;;;;;;;4976639;28;20459;-67
2022/06/23 11:15:42;;;;;;;13.27;6.18;;;;;;;;;;4993005;28;20430;-67
2022/06/23 11:18:21;;;;;;;11.65;5.80;;;;;;;;;;4992935;28;20066;-68
2022/06/23 11:21:01;;;;;;;11.45;5.03;;;;;;;;;;4992774;28;20062;-68
2022/06/23 11:23:39;;;;;;;10.25;5.50;;;;;;;;;;4973157;28;20069;-68
2022/06/23 11:26:28;;;;;;;10.55;5.85;;;;;;;;;;4973237;28;20070;-67
2022/06/23 11:29:32;;;;;;;10.68;6.03;;;;;;;;;;4987676;28;20070;-68
2022/06/23 11:32:19;;;;;;;15.93;8.90;;;;;;;;;;5003253;28;20061;-68
2022/06/23 11:35:14;;;;;;;11.98;6.72;;;;;;;;;;5031775;28;20405;-68
2022/06/23 11:37:54;;;;;;;17.63;8.20;;;;;;;;;;4982866;28;20060;-68
2022/06/23 11:40:36;;;;;;;13.80;8.70;;;;;;;;;;5031960;28;20150;-68
2022/06/23 11:43:39;;;;;;;15.13;8.95;;;;;;;;;;4975867;28;20065;-67
2022/06/23 11:46:34;;;;;;;15.95;9.77;;;;;;;;;;4959863;28;20061;-68
2022/06/23 11:49:31;;;;;;;19.13;8.43;;;;;;;;;;4992318;28;20498;-68
2022/06/23 11:52:10;;;;;;;12.30;6.55;;;;;;;;;;4972607;28;20058;-68
2022/06/23 11:55:10;;;;;;;11.93;6.05;;;;;;;;;;4956819;28;20059;-67
2022/06/23 11:58:07;;;;;;;16.17;7.18;;;;;;;;;;4972465;28;20059;-68
2022/06/23 12:00:55;;;;;;;;;;;;;;;;;;4978961;28;20058;-67
2022/06/23 12:03:46;;;;;;;14.95;8.48;;;;;;;;;;4975748;28;19929;-68
2022/06/23 12:06:29;;;;;;;12.82;8.55;;;;;;;;;;5005157;28;20069;-68
2022/06/23 12:09:07;;;;;;;10.55;6.13;;;;;;;;;;5031252;28;20061;-68
2022/06/23 12:11:38;;;;;;;11.65;5.97;;;;;;;;;;5031254;28;20041;-68
2022/06/23 12:14:10;;;;;;;11.07;6.38;;;;;;;;;;4983484;28;20509;-68
2022/06/23 12:17:04;;;;;;;10.82;6.25;;;;;;;;;;4972070;28;20419;-68
2022/06/23 12:20:12;;;;;;;10.52;5.43;;;;;;;;;;4972171;28;20062;-68
2022/06/23 12:23:07;;;;;;;10.48;6.22;;;;;;;;;;4972167;28;20055;-68
2022/06/23 12:26:14;;;;;;;9.95;5.40;;;;;;;;;;4972171;28;20055;-67
2022/06/23 12:28:50;;;;;;;10.35;6.43;;;;;;;;;;4974140;28;20535;-70
2022/06/23 12:31:36;;;;;;;11.88;5.85;;;;;;;;;;4991416;28;20494;-67
2022/06/23 12:34:22;;;;;;;11.13;6.00;;;;;;;;;;4991403;28;20211;-69
2022/06/23 12:37:17;;;;;;;12.35;6.97;;;;;;;;;;4991448;28;20547;-69
2022/06/23 12:40:04;;;;;;;14.45;7.65;;;;;;;;;;4971606;28;20051;-69
2022/06/23 12:42:42;;;;;;;12.95;6.90;;;;;;;;;;4971867;28;20683;-68
2022/06/23 12:45:42;;;;;;;12.52;7.47;;;;;;;;;;4971177;28;20066;-68
2022/06/23 12:48:23;;;;;;;14.70;7.70;;;;;;;;;;4971717;28;20164;-68
2022/06/23 12:51:06;;;;;;;12.68;7.47;;;;;;;;;;4978765;28;20514;-67
2022/06/23 12:53:56;;;;;;;15.68;6.63;;;;;;;;;;5039392;28;20061;-67
2022/06/23 12:57:16;;;;;;;10.85;6.85;;;;;;;;;;5070364;28;20547;-67
2022/06/23 13:00:05;;;;;;;13.65;7.13;;;;;;;;;;4923898;28;20407;-67
2022/06/23 13:02:35;;;;;;;12.68;6.55;;;;;;;;;;4971737;28;20403;-67
2022/06/23 13:05:29;;;;;;;11.55;6.13;;;;;;;;;;4971324;28;20054;-67
2022/06/23 13:08:25;;;;;;;10.15;5.95;;;;;;;;;;4971602;28;20426;-67
2022/06/23 13:11:03;;;;;;;12.52;6.38;;;;;;;;;;4879899;29;20559;-67
2022/06/23 13:13:56;;;;;;;12.50;6.03;;;;;;;;;;4894969;29;20413;-68
2022/06/23 13:17:21;;;;;;;10.68;4.80;;;;;;;;;;4896817;29;20057;-68
2022/06/23 13:20:05;;;;;;;11.25;5.82;;;;;;;;;;4893804;29;20056;-67
2022/06/23 13:22:59;;;;;;;11.13;6.63;;;;;;;;;;4907023;29;20052;-67
2022/06/23 13:25:34;;;;;;;8.30;4.28;;;;;;;;;;4876166;29;20061;-67
2022/06/23 13:28:06;;;;;;;7.45;4.60;;;;;;;;;;4876329;29;20060;-68
2022/06/23 13:30:47;;;;;;;7.18;3.97;;;;;;;;;;4875722;29;20059;-67
2022/06/23 13:33:44;;;;;;;5.63;3.40;;;;;;;;;;4876088;29;20446;-68
2022/06/23 13:36:47;;;;;;;6.18;3.35;;;;;;;;;;4883794;29;20064;-68
2022/06/23 13:39:35;;;;;;;6.35;3.17;;;;;;;;;;4845211;29;20061;-67
2022/06/23 13:42:27;;;;;;;7.50;3.25;;;;;;;;;;4844577;29;20058;-67
2022/06/23 13:45:04;;;;;;;9.60;3.38;;;;;;;;;;4820758;29;20073;-67
2022/06/23 13:47:40;;;;;;;6.10;3.55;;;;;;;;;;4835302;29;20787;-67
2022/06/23 13:50:22;;;;;;;6.07;2.90;;;;;;;;;;4820497;29;20066;-67
2022/06/23 13:53:36;;;;;;;5.18;3.15;;;;;;;;;;4820531;29;20051;-67
2022/06/23 13:56:13;;;;;;;4.82;2.65;;;;;;;;;;4865500;29;20518;-67
2022/06/23 13:59:12;;;;;;;4.53;2.40;;;;;;;;;;4970487;28;20055;-67
2022/06/23 14:02:01;;;;;;;4.95;2.40;;;;;;;;;;4951266;29;20070;-67
2022/06/23 14:04:40;;;;;;;6.97;3.10;;;;;;;;;;4903767;29;20067;-67
2022/06/23 14:07:29;;;;;;;5.78;3.40;;;;;;;;;;4935296;29;20424;-67
2022/06/23 14:10:03;;;;;;;5.38;2.75;;;;;;;;;;4951141;29;20094;-67
2022/06/23 14:13:05;;;;;;;6.05;2.78;;;;;;;;;;4951014;29;20059;-67
2022/06/23 14:15:53;;;;;;;6.20;2.83;;;;;;;;;;4951240;29;20436;-67
2022/06/23 14:18:52;;;;;;;8.32;4.22;;;;;;;;;;4950922;29;20059;-67
2022/06/23 14:21:31;;;;;;;8.27;4.93;;;;;;;;;;4989752;28;20058;-67
2022/06/23 14:24:15;;;;;;;11.32;5.47;;;;;;;;;;4989904;28;20058;-67
2022/06/23 14:27:14;;;;;;;9.15;5.45;;;;;;;;;;4989586;28;20118;-67
2022/06/23 14:29:53;;;;;;;11.68;5.68;;;;;;;;;;4958372;28;20503;-67
2022/06/23 14:32:38;;;;;;;10.82;5.60;;;;;;;;;;4945072;28;20051;-67
2022/06/23 14:35:11;;;;;;;11.63;6.72;;;;;;;;;;4993584;28;20070;-67
2022/06/23 14:37:47;;;;;;;29.85;20.38;;;;;;;;;;4933856;29;20058;-67
2022/06/23 14:40:42;;;;;;;9.32;5.63;;;;;;;;;;4890304;29;20097;-66
2022/06/23 14:43:33;;;;;;;12.85;8.32;;;;;;;;;;4860608;29;20607;-67
2022/06/23 14:46:34;;;;;;;11.43;6.30;;;;;;;;;;4860354;29;20065;-67
2022/06/23 14:49:39;;;;;;;10.27;5.90;;;;;;;;;;4875772;29;20053;-67
2022/06/23 14:53:02;;;;;;;11.60;6.15;;;;;;;;;;4877448;29;20060;-67
2022/06/23 14:55:54;;;;;;;10.77;6.07;;;;;;;;;;4811519;29;20061;-67
2022/06/23 14:58:49;;;;;;;11.45;6.00;;;;;;;;;;4822548;29;20053;-67
2022/06/23 15:01:51;;;;;;;10.80;7.03;;;;;;;;;;4841363;29;20057;-66
2022/06/23 15:04:30;;;;;;;10.00;5.82;;;;;;;;;;4811018;29;20057;-67
2022/06/23 15:07:08;;;;;;;9.13;5.85;;;;;;;;;;4836817;29;20062;-67
2022/06/23 15:09:52;;;;;;;8.88;5.25;;;;;;;;;;4859649;29;20072;-67
2022/06/23 15:12:46;;;;;;;10.77;6.22;;;;;;;;;;4859780;29;20057;-66
2022/06/23 15:15:34;;;;;;;12.75;6.40;;;;;;;;;;4877345;29;20405;-67
2022/06/23 15:18:43;;;;;;;9.55;5.53;;;;;;;;;;4917699;29;20063;-66
2022/06/23 15:24:41;;;;;;;10.00;6.05;;;;;;;;;;4934759;29;20071;-67
2022/06/23 15:27:19;;;;;;;8.63;5.55;;;;;;;;;;4859350;29;20064;-67
2022/06/23 15:29:55;;;;;;;11.43;6.13;;;;;;;;;;4887606;29;20060;-66
2022/06/23 15:32:31;;;;;;;9.35;5.50;;;;;;;;;;4896751;29;20057;-67
2022/06/23 15:35:28;;;;;;;10.68;5.93;;;;;;;;;;4896804;29;20060;-67
2022/06/23 15:38:39;;;;;;;10.13;5.80;;;;;;;;;;4896782;29;20409;-66
2022/06/23 15:41:25;;;;;;;10.48;5.88;;;;;;;;;;4933585;29;20477;-66
2022/06/23 15:44:01;;;;;;;11.45;5.68;;;;;;;;;;4934522;29;20066;-66
2022/06/23 15:46:44;;;;;;;10.93;6.80;;;;;;;;;;4896337;29;20063;-66
2022/06/23 15:49:53;;;;;;;11.27;6.43;;;;;;;;;;4881028;29;20059;-66
2022/06/23 15:52:42;;;;;;;11.43;6.63;;;;;;;;;;4877443;29;20394;-66
2022/06/23 15:55:51;;;;;;;10.60;6.18;;;;;;;;;;4846424;29;20064;-66
2022/06/23 15:58:53;;;;;;;11.45;6.35;;;;;;;;;;4863496;29;20069;-67
2022/06/23 16:01:45;;;;;;;11.68;6.18;;;;;;;;;;4840366;29;20050;-67
2022/06/23 16:04:33;;;;;;;10.02;6.32;;;;;;;;;;5109505;27;20409;-67
2022/06/23 16:07:13;;;;;;;11.35;5.72;;;;;;;;;;5073654;28;20404;-67
2022/06/23 16:09:48;;;;;;;10.93;5.60;;;;;;;;;;5106939;28;20048;-67
2022/06/23 16:12:37;;;;;;;13.10;5.85;;;;;;;;;;5106640;28;20051;-67
2022/06/23 16:15:24;;;;;;;15.23;8.00;;;;;;;;;;5106843;28;20052;-67
2022/06/23 16:17:57;;;;;;;10.10;6.03;;;;;;;;;;5025282;28;20048;-67
2022/06/23 16:20:34;;;;;;;9.43;5.47;;;;;;;;;;5073977;28;20420;-67
2022/06/23 16:23:19;;;;;;;9.95;5.57;;;;;;;;;;5056593;28;20186;-67
2022/06/23 16:26:46;;;;;;;10.52;5.30;;;;;;;;;;5106556;28;20110;-67
2022/06/23 16:29:25;;;;;;;11.18;5.15;;;;;;;;;;4977360;28;20058;-67
2022/06/23 16:32:34;;;;;;;;;;;;;;;;;;5026809;28;20160;-68
2022/06/23 16:35:12;;;;;;;9.57;4.88;;;;;;;;;;4929111;29;20009;-67
2022/06/23 16:37:57;;;;;;;10.35;5.35;;;;;;;;;;4928974;29;20051;-67
2022/06/23 16:40:40;;;;;;;9.30;4.90;;;;;;;;;;4895245;29;20067;-67
2022/06/23 16:43:19;;;;;;;8.38;5.25;;;;;;;;;;4925101;29;20055;-67